createdAt,value
2018-04-07T00:00:32.937Z,3.90
2018-04-07T00:05:16.268Z,3.70
2018-04-07T00:09:59.587Z,3.70
2018-04-07T00:14:43.003Z,3.50
2018-04-07T00:19:26.296Z,3.40
2018-04-07T00:24:09.691Z,3.30
2018-04-07T00:28:53.060Z,3.20
2018-04-07T00:33:36.380Z,3.10
2018-04-07T00:38:19.674Z,3.10
2018-04-07T00:43:03.112Z,3.10
2018-04-07T00:47:46.456Z,3.10
2018-04-07T00:52:41.529Z,3.10
2018-04-07T00:57:24.843Z,3.20
2018-04-07T01:02:08.252Z,3.10
2018-04-07T01:06:51.616Z,3.10
2018-04-07T01:11:34.976Z,3.00
2018-04-07T01:16:18.342Z,2.90
2018-04-07T01:21:01.648Z,2.90
2018-04-07T01:25:45.019Z,2.80
2018-04-07T01:30:28.347Z,2.70
2018-04-07T01:35:11.656Z,2.50
2018-04-07T01:39:55.793Z,2.40
2018-04-07T01:44:39.090Z,2.40
2018-04-07T01:49:22.491Z,2.50
2018-04-07T01:54:05.912Z,2.80
2018-04-07T01:58:49.317Z,2.90
2018-04-07T02:03:32.784Z,2.90
2018-04-07T02:08:16.175Z,2.90
2018-04-07T02:12:59.522Z,2.90
2018-04-07T02:17:42.855Z,2.90
2018-04-07T02:22:26.288Z,2.80
2018-04-07T02:27:10.415Z,2.70
2018-04-07T02:31:53.720Z,2.70
2018-04-07T02:36:37.142Z,2.70
2018-04-07T02:41:20.522Z,2.70
2018-04-07T02:46:03.913Z,2.70
2018-04-07T02:50:47.521Z,2.80
2018-04-07T02:55:30.820Z,2.90
2018-04-07T03:00:14.900Z,3.00
2018-04-07T03:04:58.247Z,3.10
2018-04-07T03:09:41.825Z,3.10
2018-04-07T03:14:25.196Z,3.20
2018-04-07T03:19:08.517Z,3.30
2018-04-07T03:23:52.609Z,3.50
2018-04-07T03:28:36.137Z,3.50
2018-04-07T03:33:20.441Z,3.70
2018-04-07T03:38:03.812Z,3.80
2018-04-07T03:42:47.131Z,3.70
2018-04-07T03:47:30.422Z,3.60
2018-04-07T03:52:13.918Z,3.60
2018-04-07T03:56:57.279Z,3.50
2018-04-07T04:01:40.586Z,3.40
2018-04-07T04:06:23.912Z,3.30
2018-04-07T04:11:07.277Z,3.20
2018-04-07T04:15:50.662Z,3.10
2018-04-07T04:20:34.727Z,2.80
2018-04-07T04:25:18.068Z,2.80
2018-04-07T04:30:01.441Z,2.60
2018-04-07T04:34:44.818Z,2.30
2018-04-07T04:39:28.153Z,2.20
2018-04-07T04:44:12.346Z,2.00
2018-04-07T04:48:55.686Z,1.80
2018-04-07T04:53:39.061Z,1.90
2018-04-07T04:58:22.506Z,1.90
2018-04-07T05:03:07.045Z,1.70
2018-04-07T05:07:50.520Z,2.20
2018-04-07T05:12:34.003Z,2.40
2018-04-07T05:17:17.431Z,2.90
2018-04-07T05:22:00.753Z,3.10
2018-04-07T05:26:44.167Z,3.30
2018-04-07T05:31:27.796Z,3.60
2018-04-07T05:36:11.150Z,3.90
2018-04-07T05:40:55.674Z,4.00
2018-04-07T05:45:39.524Z,4.20
2018-04-07T05:50:22.872Z,4.50
2018-04-07T05:55:07.255Z,4.80
2018-04-07T05:59:50.590Z,5.20
2018-04-07T06:04:34.790Z,5.60
2018-04-07T06:09:18.175Z,5.60
2018-04-07T06:14:02.291Z,6.00
2018-04-07T06:18:45.601Z,6.00
2018-04-07T06:23:29.806Z,6.60
2018-04-07T06:28:13.234Z,6.40
2018-04-07T06:32:56.604Z,6.90
2018-04-07T06:37:40.277Z,7.20
2018-04-07T06:42:23.748Z,7.60
2018-04-07T06:47:07.139Z,7.80
2018-04-07T06:51:50.448Z,8.20
2018-04-07T06:56:34.030Z,8.40
2018-04-07T07:01:17.382Z,8.70
2018-04-07T07:06:01.482Z,9.50
2018-04-07T07:10:45.013Z,9.50
2018-04-07T07:15:29.409Z,10.40
2018-04-07T07:20:12.835Z,10.40
2018-04-07T07:24:56.535Z,10.70
2018-04-07T07:29:40.702Z,11.20
2018-04-07T07:34:24.814Z,11.60
2018-04-07T07:39:08.252Z,11.50
2018-04-07T07:43:51.711Z,12.00
2018-04-07T07:48:35.238Z,12.10
2018-04-07T07:53:18.674Z,12.20
2018-04-07T07:58:02.060Z,12.40
2018-04-07T08:02:45.374Z,12.60
2018-04-07T08:07:28.814Z,12.70
2018-04-07T08:12:12.175Z,13.10
2018-04-07T08:16:55.847Z,13.40
2018-04-07T08:21:39.288Z,13.70
2018-04-07T08:26:22.723Z,13.90
2018-04-07T08:31:06.275Z,14.20
2018-04-07T08:35:49.892Z,14.40
2018-04-07T08:40:33.471Z,14.60
2018-04-07T08:45:17.539Z,14.90
2018-04-07T08:50:01.893Z,15.00
2018-04-07T08:54:45.296Z,15.00
2018-04-07T08:59:28.747Z,15.60
2018-04-07T09:04:12.069Z,15.90
2018-04-07T09:08:55.570Z,15.90
2018-04-07T09:13:38.958Z,15.80
2018-04-07T09:18:22.397Z,16.10
2018-04-07T09:23:05.882Z,16.40
2018-04-07T09:27:49.967Z,16.60
2018-04-07T09:32:33.513Z,16.60
2018-04-07T09:37:16.959Z,17.00
2018-04-07T09:42:00.329Z,17.30
2018-04-07T09:46:43.853Z,17.50
2018-04-07T09:51:27.197Z,17.80
2018-04-07T09:56:10.548Z,18.20
2018-04-07T10:00:53.899Z,18.40
2018-04-07T10:05:37.348Z,18.70
2018-04-07T10:10:20.758Z,19.00
2018-04-07T10:15:04.089Z,19.20
2018-04-07T10:19:47.455Z,19.40
2018-04-07T10:24:31.694Z,20.10
2018-04-07T10:29:15.065Z,20.10
2018-04-07T10:33:58.499Z,20.30
2018-04-07T10:38:41.923Z,20.20
2018-04-07T10:43:25.312Z,20.10
2018-04-07T10:48:08.634Z,20.40
2018-04-07T10:52:51.957Z,20.40
2018-04-07T10:57:35.311Z,21.00
2018-04-07T11:02:18.646Z,21.00
2018-04-07T11:07:02.060Z,20.90
2018-04-07T11:11:45.441Z,21.00
2018-04-07T11:16:28.811Z,21.70
2018-04-07T11:21:12.194Z,21.40
2018-04-07T11:25:55.595Z,21.50
2018-04-07T11:30:39.001Z,21.90
2018-04-07T11:35:22.406Z,22.20
2018-04-07T11:40:05.754Z,21.80
2018-04-07T11:44:49.971Z,21.60
2018-04-07T11:49:34.164Z,21.60
2018-04-07T11:54:17.511Z,21.60
2018-04-07T11:59:01.050Z,21.50
2018-04-07T12:03:44.428Z,22.10
2018-04-07T12:08:27.806Z,22.00
2018-04-07T12:13:11.230Z,22.20
2018-04-07T12:17:54.602Z,22.00
2018-04-07T12:22:38.976Z,22.20
2018-04-07T12:27:33.390Z,22.30
2018-04-07T12:32:17.643Z,22.20
2018-04-07T12:37:00.990Z,22.20
2018-04-07T12:41:44.641Z,22.10
2018-04-07T12:46:28.105Z,22.00
2018-04-07T12:51:11.481Z,21.70
2018-04-07T12:55:54.832Z,21.80
2018-04-07T13:00:38.208Z,22.20
2018-04-07T13:05:21.602Z,22.40
2018-04-07T13:10:05.099Z,22.40
2018-04-07T13:14:48.613Z,22.40
2018-04-07T13:19:32.265Z,21.90
2018-04-07T13:24:15.784Z,22.20
2018-04-07T13:28:59.159Z,22.40
2018-04-07T13:33:42.587Z,22.40
2018-04-07T13:38:26.718Z,22.10
2018-04-07T13:43:10.858Z,22.00
2018-04-07T13:47:54.241Z,21.90
2018-04-07T13:52:37.747Z,21.60
2018-04-07T13:57:22.767Z,21.30
2018-04-07T14:02:06.872Z,21.20
2018-04-07T14:06:50.255Z,21.20
2018-04-07T14:11:33.659Z,21.80
2018-04-07T14:16:17.051Z,22.00
2018-04-07T14:21:01.260Z,21.70
2018-04-07T14:25:44.628Z,21.70
2018-04-07T14:30:28.063Z,21.40
2018-04-07T14:35:11.394Z,21.40
2018-04-07T14:39:54.868Z,21.50
2018-04-07T14:44:38.212Z,21.20
2018-04-07T14:49:22.515Z,21.50
2018-04-07T14:54:06.482Z,21.40
2018-04-07T14:58:49.785Z,21.70
2018-04-07T15:03:34.037Z,21.60
2018-04-07T15:08:18.177Z,21.50
2018-04-07T15:13:01.523Z,21.50
2018-04-07T15:17:44.927Z,21.50
2018-04-07T15:22:28.283Z,21.60
2018-04-07T15:27:11.681Z,21.70
2018-04-07T15:31:55.002Z,21.60
2018-04-07T15:36:39.183Z,22.00
2018-04-07T15:41:22.521Z,22.00
2018-04-07T15:46:05.919Z,22.00
2018-04-07T15:50:49.324Z,21.70
2018-04-07T15:55:32.663Z,21.60
2018-04-07T16:00:16.044Z,21.60
2018-04-07T16:04:59.482Z,21.40
2018-04-07T16:09:43.030Z,21.60
2018-04-07T16:14:26.457Z,21.50
2018-04-07T16:19:10.704Z,21.70
2018-04-07T16:23:54.058Z,22.00
2018-04-07T16:28:38.585Z,21.90
2018-04-07T16:33:21.997Z,21.90
2018-04-07T16:38:05.372Z,22.30
2018-04-07T16:42:49.380Z,22.30
2018-04-07T16:47:32.839Z,22.40
2018-04-07T16:52:16.278Z,21.70
2018-04-07T16:56:59.727Z,21.60
2018-04-07T17:01:43.281Z,21.50
2018-04-07T17:06:26.672Z,21.10
2018-04-07T17:11:10.031Z,20.10
2018-04-07T17:15:53.412Z,18.80
2018-04-07T17:20:39.687Z,18.10
2018-04-07T17:25:23.241Z,17.70
2018-04-07T17:30:07.472Z,17.30
2018-04-07T17:34:51.318Z,17.00
2018-04-07T17:39:34.690Z,16.70
2018-04-07T17:44:18.140Z,16.60
2018-04-07T17:49:06.098Z,16.50
2018-04-07T17:53:45.813Z,15.90
2018-04-07T17:58:32.655Z,15.90
2018-04-07T18:03:18.018Z,15.70
2018-04-07T18:08:02.776Z,15.50
2018-04-07T18:12:47.365Z,15.50
2018-04-07T18:17:30.747Z,15.40
2018-04-07T18:22:14.944Z,15.10
2018-04-07T18:26:58.331Z,15.10
2018-04-07T18:31:42.520Z,15.00
2018-04-07T18:36:25.888Z,15.00
2018-04-07T18:41:09.279Z,14.90
2018-04-07T18:45:52.618Z,14.80
2018-04-07T18:50:36.144Z,14.60
2018-04-07T18:55:20.342Z,14.60
2018-04-07T19:00:04.450Z,14.50
2018-04-07T19:04:48.778Z,14.50
2018-04-07T19:09:32.981Z,14.30
2018-04-07T19:14:16.512Z,14.30
2018-04-07T19:18:59.904Z,14.20
2018-04-07T19:23:44.049Z,14.10
2018-04-07T19:28:27.511Z,14.20
2018-04-07T19:33:10.900Z,14.10
2018-04-07T19:37:54.317Z,14.10
2018-04-07T19:42:37.703Z,14.20
2018-04-07T19:47:21.035Z,14.10
2018-04-07T19:52:04.507Z,14.00
2018-04-07T19:56:47.836Z,14.00
2018-04-07T20:01:31.177Z,14.00
2018-04-07T20:06:14.507Z,14.00
2018-04-07T20:10:57.964Z,13.70
2018-04-07T20:15:42.190Z,13.70
2018-04-07T20:20:33.944Z,13.60
2018-04-07T20:25:18.550Z,13.60
2018-04-07T20:30:02.711Z,13.40
2018-04-07T20:34:46.295Z,13.40
2018-04-07T20:39:29.678Z,13.30
2018-04-07T20:44:13.006Z,13.20
2018-04-07T20:48:56.355Z,13.00
2018-04-07T20:53:39.803Z,13.00
2018-04-07T20:58:24.002Z,12.90
2018-04-07T21:03:08.200Z,12.70
2018-04-07T21:07:52.270Z,12.70
2018-04-07T21:12:37.395Z,12.50
2018-04-07T21:17:21.545Z,12.50
2018-04-07T21:22:05.022Z,12.40
2018-04-07T21:26:48.642Z,12.40
2018-04-07T21:31:32.815Z,12.30
2018-04-07T21:36:16.174Z,12.30
2018-04-07T21:40:59.582Z,12.20
2018-04-07T21:45:43.697Z,12.10
2018-04-07T21:50:27.112Z,12.10
2018-04-07T21:55:10.492Z,12.00
2018-04-07T21:59:54.800Z,12.00
2018-04-07T22:04:39.855Z,11.90
2018-04-07T22:09:23.229Z,11.90
2018-04-07T22:14:07.341Z,11.60
2018-04-07T22:18:50.683Z,11.60
2018-04-07T22:23:34.021Z,11.60
2018-04-07T22:28:17.376Z,11.50
2018-04-07T22:33:01.765Z,11.40
2018-04-07T22:37:45.088Z,11.40
2018-04-07T22:42:29.383Z,11.30
2018-04-07T22:47:12.881Z,11.30
2018-04-07T22:51:56.987Z,11.20
2018-04-07T22:56:40.351Z,11.10
2018-04-07T23:01:23.756Z,11.10
2018-04-07T23:06:07.938Z,10.80
2018-04-07T23:10:51.238Z,10.80
2018-04-07T23:15:34.599Z,10.80
2018-04-07T23:20:18.082Z,10.80
2018-04-07T23:25:01.454Z,10.70
2018-04-07T23:29:44.830Z,10.70
2018-04-07T23:34:28.212Z,10.60
2018-04-07T23:39:11.543Z,10.60
2018-04-07T23:43:54.902Z,10.50
2018-04-07T23:48:38.331Z,10.30
2018-04-07T23:53:21.664Z,10.30
2018-04-07T23:58:05.158Z,10.10
